sensor_id;sensor_type;location;lat;lon;timestamp;P1;durP1;ratioP1;P2;durP2;ratioP2
10471;SDS011;5283;48.876;8.962;2024-01-15T00:02:01;17.60;;;8.70;;
10471;SDS011;5283;48.876;8.962;2024-01-15T00:04:27;17.47;;;8.20;;
10471;SDS011;5283;48.876;8.962;2024-01-15T00:06:54;16.70;;;9.07;;
10471;SDS011;5283;48.876;8.962;2024-01-15T00:09:21;15.80;;;7.70;;
10471;SDS011;5283;48.876;8.962;2024-01-15T00:11:47;16.13;;;7.97;;
10471;SDS011;5283;48.876;8.962;2024-01-15T00:14:14;16.63;;;8.80;;
10471;SDS011;5283;48.876;8.962;2024-01-15T00:16:46;14.57;;;8.23;;
10471;SDS011;5283;48.876;8.962;2024-01-15T00:19:13;17.10;;;7.97;;
10471;SDS011;5283;48.876;8.962;2024-01-15T00:21:39;18.93;;;8.67;;
10471;SDS011;5283;48.876;8.962;2024-01-15T00:24:06;15.67;;;8.97;;
10471;SDS011;5283;48.876;8.962;2024-01-15T00:26:33;16.43;;;8.03;;
10471;SDS011;5283;48.876;8.962;2024-01-15T00:28:59;17.60;;;9.33;;
10471;SDS011;5283;48.876;8.962;2024-01-15T00:31:26;20.10;;;9.53;;
10471;SDS011;5283;48.876;8.962;2024-01-15T00:33:53;14.00;;;7.97;;
10471;SDS011;5283;48.876;8.962;2024-01-15T00:36:20;17.60;;;8.43;;
10471;SDS011;5283;48.876;8.962;2024-01-15T00:38:46;17.40;;;9.40;;
10471;SDS011;5283;48.876;8.962;2024-01-15T00:41:14;16.53;;;8.57;;
10471;SDS011;5283;48.876;8.962;2024-01-15T00:43:41;16.17;;;8.50;;
10471;SDS011;5283;48.876;8.962;2024-01-15T00:46:07;18.63;;;8.40;;
10471;SDS011;5283;48.876;8.962;2024-01-15T00:48:34;16.90;;;9.00;;
10471;SDS011;5283;48.876;8.962;2024-01-15T00:51:01;14.60;;;8.77;;
10471;SDS011;5283;48.876;8.962;2024-01-15T00:53:28;16.37;;;9.60;;
10471;SDS011;5283;48.876;8.962;2024-01-15T00:55:55;17.57;;;9.03;;
10471;SDS011;5283;48.876;8.962;2024-01-15T00:58:21;17.33;;;8.70;;
10471;SDS011;5283;48.876;8.962;2024-01-15T01:00:48;16.33;;;8.77;;
10471;SDS011;5283;48.876;8.962;2024-01-15T01:03:15;16.90;;;9.03;;
10471;SDS011;5283;48.876;8.962;2024-01-15T01:05:42;18.57;;;8.83;;
10471;SDS011;5283;48.876;8.962;2024-01-15T01:08:10;16.13;;;8.63;;
10471;SDS011;5283;48.876;8.962;2024-01-15T01:10:37;17.20;;;8.63;;
10471;SDS011;5283;48.876;8.962;2024-01-15T01:13:03;18.13;;;8.70;;
10471;SDS011;5283;48.876;8.962;2024-01-15T01:15:30;14.47;;;8.13;;
10471;SDS011;5283;48.876;8.962;2024-01-15T01:17:57;15.03;;;7.33;;
10471;SDS011;5283;48.876;8.962;2024-01-15T01:20:23;15.80;;;7.70;;
10471;SDS011;5283;48.876;8.962;2024-01-15T01:22:50;15.37;;;7.90;;
10471;SDS011;5283;48.876;8.962;2024-01-15T01:25:17;18.53;;;8.17;;
10471;SDS011;5283;48.876;8.962;2024-01-15T01:27:44;15.50;;;8.00;;
10471;SDS011;5283;48.876;8.962;2024-01-15T01:30:10;14.40;;;7.70;;
10471;SDS011;5283;48.876;8.962;2024-01-15T01:32:37;18.00;;;8.07;;
10471;SDS011;5283;48.876;8.962;2024-01-15T01:35:04;15.27;;;7.63;;
10471;SDS011;5283;48.876;8.962;2024-01-15T01:37:31;13.87;;;7.60;;
10471;SDS011;5283;48.876;8.962;2024-01-15T01:39:59;14.00;;;7.60;;
10471;SDS011;5283;48.876;8.962;2024-01-15T01:42:26;12.97;;;7.23;;
10471;SDS011;5283;48.876;8.962;2024-01-15T01:44:52;14.20;;;7.83;;
10471;SDS011;5283;48.876;8.962;2024-01-15T01:47:19;13.00;;;7.07;;
10471;SDS011;5283;48.876;8.962;2024-01-15T01:49:46;14.87;;;7.30;;
10471;SDS011;5283;48.876;8.962;2024-01-15T01:52:13;13.77;;;7.47;;
10471;SDS011;5283;48.876;8.962;2024-01-15T01:54:40;14.63;;;7.03;;
10471;SDS011;5283;48.876;8.962;2024-01-15T01:57:08;17.60;;;7.40;;
10471;SDS011;5283;48.876;8.962;2024-01-15T01:59:35;14.07;;;7.60;;
10471;SDS011;5283;48.876;8.962;2024-01-15T02:02:02;16.30;;;7.77;;
10471;SDS011;5283;48.876;8.962;2024-01-15T02:04:30;14.67;;;6.80;;
10471;SDS011;5283;48.876;8.962;2024-01-15T02:06:58;14.47;;;6.90;;
10471;SDS011;5283;48.876;8.962;2024-01-15T02:09:26;15.00;;;7.00;;
10471;SDS011;5283;48.876;8.962;2024-01-15T02:11:52;16.60;;;7.10;;
10471;SDS011;5283;48.876;8.962;2024-01-15T02:14:19;14.43;;;6.73;;
10471;SDS011;5283;48.876;8.962;2024-01-15T02:16:46;14.07;;;6.97;;
10471;SDS011;5283;48.876;8.962;2024-01-15T02:19:16;13.83;;;7.30;;
10471;SDS011;5283;48.876;8.962;2024-01-15T02:21:44;13.83;;;7.67;;
10471;SDS011;5283;48.876;8.962;2024-01-15T02:24:11;16.40;;;7.00;;
10471;SDS011;5283;48.876;8.962;2024-01-15T02:26:37;17.70;;;7.47;;
10471;SDS011;5283;48.876;8.962;2024-01-15T02:29:07;15.67;;;6.70;;
10471;SDS011;5283;48.876;8.962;2024-01-15T02:31:37;14.40;;;6.77;;
10471;SDS011;5283;48.876;8.962;2024-01-15T02:34:04;12.70;;;6.97;;
10471;SDS011;5283;48.876;8.962;2024-01-15T02:36:31;11.63;;;5.87;;
10471;SDS011;5283;48.876;8.962;2024-01-15T02:38:57;12.33;;;6.90;;
10471;SDS011;5283;48.876;8.962;2024-01-15T02:41:24;13.23;;;6.53;;
10471;SDS011;5283;48.876;8.962;2024-01-15T02:43:51;15.17;;;7.20;;
10471;SDS011;5283;48.876;8.962;2024-01-15T02:46:17;11.53;;;6.50;;
10471;SDS011;5283;48.876;8.962;2024-01-15T02:48:44;14.17;;;7.23;;
10471;SDS011;5283;48.876;8.962;2024-01-15T02:51:11;14.37;;;6.63;;
10471;SDS011;5283;48.876;8.962;2024-01-15T02:53:38;13.67;;;6.60;;
10471;SDS011;5283;48.876;8.962;2024-01-15T02:56:06;14.10;;;6.40;;
10471;SDS011;5283;48.876;8.962;2024-01-15T02:58:33;12.57;;;6.37;;
10471;SDS011;5283;48.876;8.962;2024-01-15T03:01:00;14.80;;;7.13;;
10471;SDS011;5283;48.876;8.962;2024-01-15T03:03:27;12.57;;;6.17;;
10471;SDS011;5283;48.876;8.962;2024-01-15T03:05:54;14.63;;;6.43;;
10471;SDS011;5283;48.876;8.962;2024-01-15T03:08:20;15.77;;;6.87;;
10471;SDS011;5283;48.876;8.962;2024-01-15T03:10:48;13.17;;;6.00;;
10471;SDS011;5283;48.876;8.962;2024-01-15T03:13:15;15.40;;;7.07;;
10471;SDS011;5283;48.876;8.962;2024-01-15T03:15:42;14.90;;;7.27;;
10471;SDS011;5283;48.876;8.962;2024-01-15T03:18:09;9.83;;;5.80;;
10471;SDS011;5283;48.876;8.962;2024-01-15T03:20:36;12.23;;;6.97;;
10471;SDS011;5283;48.876;8.962;2024-01-15T03:23:03;10.93;;;5.63;;
10471;SDS011;5283;48.876;8.962;2024-01-15T03:25:30;11.53;;;5.83;;
10471;SDS011;5283;48.876;8.962;2024-01-15T03:27:57;10.83;;;5.90;;
10471;SDS011;5283;48.876;8.962;2024-01-15T03:30:23;12.40;;;6.03;;
10471;SDS011;5283;48.876;8.962;2024-01-15T03:32:50;10.37;;;4.93;;
10471;SDS011;5283;48.876;8.962;2024-01-15T03:35:17;9.67;;;5.80;;
10471;SDS011;5283;48.876;8.962;2024-01-15T03:37:43;10.70;;;5.80;;
10471;SDS011;5283;48.876;8.962;2024-01-15T03:40:10;10.53;;;5.60;;
10471;SDS011;5283;48.876;8.962;2024-01-15T03:42:37;11.57;;;6.10;;
10471;SDS011;5283;48.876;8.962;2024-01-15T03:45:04;10.83;;;5.50;;
10471;SDS011;5283;48.876;8.962;2024-01-15T03:47:31;11.73;;;6.00;;
10471;SDS011;5283;48.876;8.962;2024-01-15T03:49:58;9.93;;;5.53;;
10471;SDS011;5283;48.876;8.962;2024-01-15T03:52:25;9.77;;;5.20;;
10471;SDS011;5283;48.876;8.962;2024-01-15T03:54:51;12.43;;;6.53;;
10471;SDS011;5283;48.876;8.962;2024-01-15T03:57:18;7.87;;;5.10;;
10471;SDS011;5283;48.876;8.962;2024-01-15T03:59:45;8.97;;;5.73;;
10471;SDS011;5283;48.876;8.962;2024-01-15T04:02:13;8.13;;;5.23;;
10471;SDS011;5283;48.876;8.962;2024-01-15T04:04:40;9.63;;;5.43;;
10471;SDS011;5283;48.876;8.962;2024-01-15T04:07:11;9.40;;;5.27;;
10471;SDS011;5283;48.876;8.962;2024-01-15T04:09:38;7.27;;;4.20;;
10471;SDS011;5283;48.876;8.962;2024-01-15T04:12:04;8.97;;;4.97;;
10471;SDS011;5283;48.876;8.962;2024-01-15T04:14:31;110.53;;;28.27;;
10471;SDS011;5283;48.876;8.962;2024-01-15T04:16:58;7.90;;;4.20;;
10471;SDS011;5283;48.876;8.962;2024-01-15T04:19:25;6.97;;;4.20;;
10471;SDS011;5283;48.876;8.962;2024-01-15T04:21:51;7.53;;;4.17;;
10471;SDS011;5283;48.876;8.962;2024-01-15T04:24:18;7.90;;;4.07;;
10471;SDS011;5283;48.876;8.962;2024-01-15T04:26:45;7.27;;;4.33;;
10471;SDS011;5283;48.876;8.962;2024-01-15T04:29:12;11.93;;;4.67;;
10471;SDS011;5283;48.876;8.962;2024-01-15T04:31:38;7.53;;;4.37;;
10471;SDS011;5283;48.876;8.962;2024-01-15T04:34:05;8.07;;;5.00;;
10471;SDS011;5283;48.876;8.962;2024-01-15T04:36:32;7.77;;;4.30;;
10471;SDS011;5283;48.876;8.962;2024-01-15T04:39:04;7.80;;;4.53;;
10471;SDS011;5283;48.876;8.962;2024-01-15T04:41:31;7.03;;;4.43;;
10471;SDS011;5283;48.876;8.962;2024-01-15T04:43:57;7.57;;;4.50;;
10471;SDS011;5283;48.876;8.962;2024-01-15T04:46:26;6.07;;;3.80;;
10471;SDS011;5283;48.876;8.962;2024-01-15T04:48:53;6.20;;;3.50;;
10471;SDS011;5283;48.876;8.962;2024-01-15T04:51:20;5.77;;;3.60;;
10471;SDS011;5283;48.876;8.962;2024-01-15T04:53:47;8.27;;;4.47;;
10471;SDS011;5283;48.876;8.962;2024-01-15T04:56:13;7.33;;;4.73;;
10471;SDS011;5283;48.876;8.962;2024-01-15T04:58:40;6.53;;;4.10;;
10471;SDS011;5283;48.876;8.962;2024-01-15T05:01:07;8.30;;;4.13;;
10471;SDS011;5283;48.876;8.962;2024-01-15T05:03:35;11.27;;;4.50;;
10471;SDS011;5283;48.876;8.962;2024-01-15T05:06:02;6.03;;;4.00;;
10471;SDS011;5283;48.876;8.962;2024-01-15T05:08:29;5.60;;;4.20;;
10471;SDS011;5283;48.876;8.962;2024-01-15T05:10:55;6.23;;;3.83;;
10471;SDS011;5283;48.876;8.962;2024-01-15T05:13:22;7.03;;;4.10;;
10471;SDS011;5283;48.876;8.962;2024-01-15T05:15:49;6.13;;;3.90;;
10471;SDS011;5283;48.876;8.962;2024-01-15T05:18:16;5.43;;;3.70;;
10471;SDS011;5283;48.876;8.962;2024-01-15T05:20:43;5.20;;;3.27;;
10471;SDS011;5283;48.876;8.962;2024-01-15T05:23:10;6.23;;;3.80;;
10471;SDS011;5283;48.876;8.962;2024-01-15T05:25:36;7.33;;;3.50;;
10471;SDS011;5283;48.876;8.962;2024-01-15T05:28:04;7.23;;;3.80;;
10471;SDS011;5283;48.876;8.962;2024-01-15T05:30:31;6.97;;;3.80;;
10471;SDS011;5283;48.876;8.962;2024-01-15T05:32:58;5.37;;;3.37;;
10471;SDS011;5283;48.876;8.962;2024-01-15T05:35:26;7.30;;;3.80;;
10471;SDS011;5283;48.876;8.962;2024-01-15T05:37:53;5.90;;;3.13;;
10471;SDS011;5283;48.876;8.962;2024-01-15T05:40:19;5.33;;;3.17;;
10471;SDS011;5283;48.876;8.962;2024-01-15T05:42:46;7.03;;;3.50;;
10471;SDS011;5283;48.876;8.962;2024-01-15T05:45:13;4.47;;;2.80;;
10471;SDS011;5283;48.876;8.962;2024-01-15T05:47:40;5.17;;;3.20;;
10471;SDS011;5283;48.876;8.962;2024-01-15T05:50:06;4.60;;;3.03;;
10471;SDS011;5283;48.876;8.962;2024-01-15T05:52:34;4.97;;;3.00;;
10471;SDS011;5283;48.876;8.962;2024-01-15T05:55:01;4.60;;;3.23;;
10471;SDS011;5283;48.876;8.962;2024-01-15T05:57:28;5.47;;;2.87;;
10471;SDS011;5283;48.876;8.962;2024-01-15T05:59:54;6.03;;;3.20;;
10471;SDS011;5283;48.876;8.962;2024-01-15T06:02:22;7.33;;;3.47;;
10471;SDS011;5283;48.876;8.962;2024-01-15T06:04:49;5.67;;;3.17;;
10471;SDS011;5283;48.876;8.962;2024-01-15T06:07:15;6.10;;;3.80;;
10471;SDS011;5283;48.876;8.962;2024-01-15T06:09:42;5.07;;;3.00;;
10471;SDS011;5283;48.876;8.962;2024-01-15T06:12:09;5.00;;;3.10;;
10471;SDS011;5283;48.876;8.962;2024-01-15T06:14:36;5.60;;;3.57;;
10471;SDS011;5283;48.876;8.962;2024-01-15T06:17:02;4.90;;;3.20;;
10471;SDS011;5283;48.876;8.962;2024-01-15T06:19:29;6.63;;;4.00;;
10471;SDS011;5283;48.876;8.962;2024-01-15T06:21:56;5.87;;;3.10;;
10471;SDS011;5283;48.876;8.962;2024-01-15T06:24:23;5.30;;;3.10;;
10471;SDS011;5283;48.876;8.962;2024-01-15T06:26:50;5.53;;;3.33;;
10471;SDS011;5283;48.876;8.962;2024-01-15T06:29:16;7.57;;;4.00;;
10471;SDS011;5283;48.876;8.962;2024-01-15T06:31:43;8.57;;;3.90;;
10471;SDS011;5283;48.876;8.962;2024-01-15T06:34:10;7.50;;;3.77;;
10471;SDS011;5283;48.876;8.962;2024-01-15T06:36:37;5.10;;;3.77;;
10471;SDS011;5283;48.876;8.962;2024-01-15T06:39:03;6.83;;;4.23;;
10471;SDS011;5283;48.876;8.962;2024-01-15T06:41:31;6.07;;;3.77;;
10471;SDS011;5283;48.876;8.962;2024-01-15T06:43:58;6.73;;;4.33;;
10471;SDS011;5283;48.876;8.962;2024-01-15T06:46:24;7.07;;;4.07;;
10471;SDS011;5283;48.876;8.962;2024-01-15T06:48:54;6.43;;;3.67;;
10471;SDS011;5283;48.876;8.962;2024-01-15T06:51:20;5.63;;;3.70;;
10471;SDS011;5283;48.876;8.962;2024-01-15T06:53:47;3.83;;;3.10;;
10471;SDS011;5283;48.876;8.962;2024-01-15T06:56:14;4.73;;;3.20;;
10471;SDS011;5283;48.876;8.962;2024-01-15T06:58:40;3.40;;;2.97;;
10471;SDS011;5283;48.876;8.962;2024-01-15T07:01:07;4.20;;;3.10;;
10471;SDS011;5283;48.876;8.962;2024-01-15T07:03:34;4.63;;;3.27;;
10471;SDS011;5283;48.876;8.962;2024-01-15T07:06:01;5.33;;;3.27;;
10471;SDS011;5283;48.876;8.962;2024-01-15T07:08:28;4.27;;;3.03;;
10471;SDS011;5283;48.876;8.962;2024-01-15T07:10:54;5.27;;;3.47;;
10471;SDS011;5283;48.876;8.962;2024-01-15T07:13:21;4.23;;;3.07;;
10471;SDS011;5283;48.876;8.962;2024-01-15T07:15:48;5.20;;;3.83;;
10471;SDS011;5283;48.876;8.962;2024-01-15T07:18:15;6.43;;;3.43;;
10471;SDS011;5283;48.876;8.962;2024-01-15T07:20:41;5.20;;;3.33;;
10471;SDS011;5283;48.876;8.962;2024-01-15T07:23:08;7.47;;;4.00;;
10471;SDS011;5283;48.876;8.962;2024-01-15T07:25:35;7.50;;;3.30;;
10471;SDS011;5283;48.876;8.962;2024-01-15T07:28:02;5.47;;;3.47;;
10471;SDS011;5283;48.876;8.962;2024-01-15T07:30:30;5.30;;;3.53;;
10471;SDS011;5283;48.876;8.962;2024-01-15T07:32:56;9.13;;;4.07;;
10471;SDS011;5283;48.876;8.962;2024-01-15T07:35:24;7.70;;;4.33;;
10471;SDS011;5283;48.876;8.962;2024-01-15T07:37:51;6.23;;;3.93;;
10471;SDS011;5283;48.876;8.962;2024-01-15T07:40:18;7.03;;;3.80;;
10471;SDS011;5283;48.876;8.962;2024-01-15T07:42:44;6.77;;;4.13;;
10471;SDS011;5283;48.876;8.962;2024-01-15T07:45:11;9.10;;;4.33;;
10471;SDS011;5283;48.876;8.962;2024-01-15T07:47:38;9.30;;;4.37;;
10471;SDS011;5283;48.876;8.962;2024-01-15T07:50:05;7.27;;;4.20;;
10471;SDS011;5283;48.876;8.962;2024-01-15T07:52:32;5.97;;;3.83;;
10471;SDS011;5283;48.876;8.962;2024-01-15T07:54:58;8.47;;;4.20;;
10471;SDS011;5283;48.876;8.962;2024-01-15T07:57:29;6.97;;;4.07;;
10471;SDS011;5283;48.876;8.962;2024-01-15T07:59:56;5.50;;;3.73;;
10471;SDS011;5283;48.876;8.962;2024-01-15T08:02:23;6.57;;;3.70;;
10471;SDS011;5283;48.876;8.962;2024-01-15T08:04:50;7.27;;;4.50;;
10471;SDS011;5283;48.876;8.962;2024-01-15T08:07:17;6.47;;;4.20;;
10471;SDS011;5283;48.876;8.962;2024-01-15T08:09:44;7.23;;;4.47;;
10471;SDS011;5283;48.876;8.962;2024-01-15T08:12:12;7.77;;;3.90;;
10471;SDS011;5283;48.876;8.962;2024-01-15T08:14:39;6.67;;;4.10;;
10471;SDS011;5283;48.876;8.962;2024-01-15T08:17:06;5.23;;;4.03;;
10471;SDS011;5283;48.876;8.962;2024-01-15T08:19:33;8.80;;;4.40;;
10471;SDS011;5283;48.876;8.962;2024-01-15T08:21:59;7.70;;;3.70;;
10471;SDS011;5283;48.876;8.962;2024-01-15T08:24:26;6.07;;;3.83;;
10471;SDS011;5283;48.876;8.962;2024-01-15T08:26:55;10.43;;;5.37;;
10471;SDS011;5283;48.876;8.962;2024-01-15T08:29:22;12.80;;;7.67;;
10471;SDS011;5283;48.876;8.962;2024-01-15T08:31:50;18.53;;;5.20;;
10471;SDS011;5283;48.876;8.962;2024-01-15T08:34:17;11.03;;;5.43;;
10471;SDS011;5283;48.876;8.962;2024-01-15T08:36:44;7.23;;;4.47;;
10471;SDS011;5283;48.876;8.962;2024-01-15T08:39:10;8.37;;;4.60;;
10471;SDS011;5283;48.876;8.962;2024-01-15T08:41:37;12.13;;;6.20;;
10471;SDS011;5283;48.876;8.962;2024-01-15T08:44:04;10.43;;;4.90;;
10471;SDS011;5283;48.876;8.962;2024-01-15T08:46:30;7.30;;;4.20;;
10471;SDS011;5283;48.876;8.962;2024-01-15T08:48:57;6.07;;;4.03;;
10471;SDS011;5283;48.876;8.962;2024-01-15T08:51:24;4.07;;;3.03;;
10471;SDS011;5283;48.876;8.962;2024-01-15T08:53:50;4.83;;;2.70;;
10471;SDS011;5283;48.876;8.962;2024-01-15T08:56:17;6.73;;;4.37;;
10471;SDS011;5283;48.876;8.962;2024-01-15T08:58:44;5.40;;;3.80;;
10471;SDS011;5283;48.876;8.962;2024-01-15T09:01:12;5.07;;;3.50;;
10471;SDS011;5283;48.876;8.962;2024-01-15T09:03:39;5.77;;;2.87;;
10471;SDS011;5283;48.876;8.962;2024-01-15T09:06:07;4.60;;;2.60;;
10471;SDS011;5283;48.876;8.962;2024-01-15T09:08:35;3.37;;;2.50;;
10471;SDS011;5283;48.876;8.962;2024-01-15T09:11:03;4.17;;;2.20;;
10471;SDS011;5283;48.876;8.962;2024-01-15T09:13:29;2.83;;;2.10;;
10471;SDS011;5283;48.876;8.962;2024-01-15T09:15:57;3.77;;;2.57;;
10471;SDS011;5283;48.876;8.962;2024-01-15T09:18:25;3.63;;;2.27;;
10471;SDS011;5283;48.876;8.962;2024-01-15T09:20:51;4.57;;;3.00;;
10471;SDS011;5283;48.876;8.962;2024-01-15T09:23:18;3.23;;;2.33;;
10471;SDS011;5283;48.876;8.962;2024-01-15T09:25:45;5.17;;;2.20;;
10471;SDS011;5283;48.876;8.962;2024-01-15T09:28:12;3.90;;;2.17;;
10471;SDS011;5283;48.876;8.962;2024-01-15T09:30:39;3.07;;;2.40;;
10471;SDS011;5283;48.876;8.962;2024-01-15T09:33:06;2.67;;;2.07;;
10471;SDS011;5283;48.876;8.962;2024-01-15T09:35:33;3.20;;;1.83;;
10471;SDS011;5283;48.876;8.962;2024-01-15T09:38:00;3.23;;;2.10;;
10471;SDS011;5283;48.876;8.962;2024-01-15T09:40:27;4.60;;;2.43;;
10471;SDS011;5283;48.876;8.962;2024-01-15T09:43:01;3.27;;;2.13;;
10471;SDS011;5283;48.876;8.962;2024-01-15T09:45:28;5.07;;;2.60;;
10471;SDS011;5283;48.876;8.962;2024-01-15T09:47:56;3.97;;;2.57;;
10471;SDS011;5283;48.876;8.962;2024-01-15T09:50:23;4.73;;;2.70;;
10471;SDS011;5283;48.876;8.962;2024-01-15T09:52:50;4.83;;;2.97;;
10471;SDS011;5283;48.876;8.962;2024-01-15T09:55:17;4.53;;;2.80;;
10471;SDS011;5283;48.876;8.962;2024-01-15T09:57:44;3.90;;;2.60;;
10471;SDS011;5283;48.876;8.962;2024-01-15T10:00:14;5.00;;;2.57;;
10471;SDS011;5283;48.876;8.962;2024-01-15T10:02:44;4.90;;;2.87;;
10471;SDS011;5283;48.876;8.962;2024-01-15T10:05:11;4.10;;;2.53;;
10471;SDS011;5283;48.876;8.962;2024-01-15T10:07:37;3.77;;;2.27;;
10471;SDS011;5283;48.876;8.962;2024-01-15T10:10:05;4.77;;;2.93;;
10471;SDS011;5283;48.876;8.962;2024-01-15T10:12:33;3.87;;;2.60;;
10471;SDS011;5283;48.876;8.962;2024-01-15T10:15:01;4.77;;;2.70;;
10471;SDS011;5283;48.876;8.962;2024-01-15T10:17:27;3.80;;;2.90;;
10471;SDS011;5283;48.876;8.962;2024-01-15T10:19:54;4.40;;;3.00;;
10471;SDS011;5283;48.876;8.962;2024-01-15T10:22:21;3.13;;;2.70;;
10471;SDS011;5283;48.876;8.962;2024-01-15T10:24:48;5.90;;;2.83;;
10471;SDS011;5283;48.876;8.962;2024-01-15T10:27:15;6.17;;;2.70;;
10471;SDS011;5283;48.876;8.962;2024-01-15T10:29:42;4.90;;;2.80;;
10471;SDS011;5283;48.876;8.962;2024-01-15T10:32:09;4.70;;;2.63;;
10471;SDS011;5283;48.876;8.962;2024-01-15T10:34:39;3.93;;;2.53;;
10471;SDS011;5283;48.876;8.962;2024-01-15T10:37:07;5.10;;;2.90;;
10471;SDS011;5283;48.876;8.962;2024-01-15T10:39:35;3.27;;;2.53;;
10471;SDS011;5283;48.876;8.962;2024-01-15T10:42:03;4.27;;;3.17;;
10471;SDS011;5283;48.876;8.962;2024-01-15T10:44:30;5.40;;;3.27;;
10471;SDS011;5283;48.876;8.962;2024-01-15T10:46:56;5.63;;;3.40;;
10471;SDS011;5283;48.876;8.962;2024-01-15T10:49:23;5.63;;;3.50;;
10471;SDS011;5283;48.876;8.962;2024-01-15T10:51:54;5.13;;;3.53;;
10471;SDS011;5283;48.876;8.962;2024-01-15T10:54:23;4.70;;;3.30;;
10471;SDS011;5283;48.876;8.962;2024-01-15T10:56:50;5.30;;;3.40;;
10471;SDS011;5283;48.876;8.962;2024-01-15T10:59:20;5.60;;;3.40;;
10471;SDS011;5283;48.876;8.962;2024-01-15T11:01:48;4.33;;;3.03;;
10471;SDS011;5283;48.876;8.962;2024-01-15T11:04:16;5.40;;;3.30;;
10471;SDS011;5283;48.876;8.962;2024-01-15T11:06:45;4.27;;;2.93;;
10471;SDS011;5283;48.876;8.962;2024-01-15T11:09:13;5.57;;;3.10;;
10471;SDS011;5283;48.876;8.962;2024-01-15T11:11:41;4.07;;;3.00;;
10471;SDS011;5283;48.876;8.962;2024-01-15T11:14:11;4.50;;;2.90;;
10471;SDS011;5283;48.876;8.962;2024-01-15T11:16:57;5.67;;;3.53;;
10471;SDS011;5283;48.876;8.962;2024-01-15T11:24:57;5.07;;;3.00;;
10471;SDS011;5283;48.876;8.962;2024-01-15T11:27:44;4.00;;;3.07;;
10471;SDS011;5283;48.876;8.962;2024-01-15T11:30:19;5.50;;;3.53;;
10471;SDS011;5283;48.876;8.962;2024-01-15T11:32:50;6.30;;;3.30;;
10471;SDS011;5283;48.876;8.962;2024-01-15T11:35:17;4.40;;;3.30;;
10471;SDS011;5283;48.876;8.962;2024-01-15T11:40:18;7.07;;;4.03;;
10471;SDS011;5283;48.876;8.962;2024-01-15T11:43:04;6.20;;;3.27;;
10471;SDS011;5283;48.876;8.962;2024-01-15T11:45:32;5.17;;;3.17;;
10471;SDS011;5283;48.876;8.962;2024-01-15T11:50:41;6.17;;;3.63;;
10471;SDS011;5283;48.876;8.962;2024-01-15T11:55:51;5.23;;;4.10;;
10471;SDS011;5283;48.876;8.962;2024-01-15T11:58:19;6.97;;;3.73;;
10471;SDS011;5283;48.876;8.962;2024-01-15T12:00:47;5.40;;;3.53;;
10471;SDS011;5283;48.876;8.962;2024-01-15T12:03:22;5.63;;;3.40;;
10471;SDS011;5283;48.876;8.962;2024-01-15T12:05:49;6.50;;;3.63;;
10471;SDS011;5283;48.876;8.962;2024-01-15T12:08:21;5.13;;;3.27;;
10471;SDS011;5283;48.876;8.962;2024-01-15T12:10:49;5.13;;;3.20;;
10471;SDS011;5283;48.876;8.962;2024-01-15T12:13:16;5.80;;;3.40;;
10471;SDS011;5283;48.876;8.962;2024-01-15T12:15:45;5.83;;;3.47;;
10471;SDS011;5283;48.876;8.962;2024-01-15T12:18:13;12.30;;;5.27;;
10471;SDS011;5283;48.876;8.962;2024-01-15T12:20:42;5.70;;;3.13;;
10471;SDS011;5283;48.876;8.962;2024-01-15T12:23:10;2.80;;;2.47;;
10471;SDS011;5283;48.876;8.962;2024-01-15T12:25:37;3.93;;;2.43;;
10471;SDS011;5283;48.876;8.962;2024-01-15T12:28:04;3.77;;;2.63;;
10471;SDS011;5283;48.876;8.962;2024-01-15T12:30:32;3.50;;;2.17;;
10471;SDS011;5283;48.876;8.962;2024-01-15T12:33:01;3.03;;;2.50;;
10471;SDS011;5283;48.876;8.962;2024-01-15T12:35:30;3.20;;;2.33;;
10471;SDS011;5283;48.876;8.962;2024-01-15T12:37:56;3.40;;;2.47;;
10471;SDS011;5283;48.876;8.962;2024-01-15T12:40:23;3.47;;;2.17;;
10471;SDS011;5283;48.876;8.962;2024-01-15T12:42:50;3.23;;;2.43;;
10471;SDS011;5283;48.876;8.962;2024-01-15T12:45:17;2.57;;;2.00;;
10471;SDS011;5283;48.876;8.962;2024-01-15T12:47:44;4.50;;;2.50;;
10471;SDS011;5283;48.876;8.962;2024-01-15T12:50:12;2.37;;;1.87;;
10471;SDS011;5283;48.876;8.962;2024-01-15T12:52:41;2.50;;;2.30;;
10471;SDS011;5283;48.876;8.962;2024-01-15T12:55:08;2.77;;;2.13;;
10471;SDS011;5283;48.876;8.962;2024-01-15T12:57:36;2.93;;;2.27;;
10471;SDS011;5283;48.876;8.962;2024-01-15T13:00:03;3.23;;;2.50;;
10471;SDS011;5283;48.876;8.962;2024-01-15T13:02:38;4.60;;;2.60;;
10471;SDS011;5283;48.876;8.962;2024-01-15T13:05:10;3.07;;;2.30;;
10471;SDS011;5283;48.876;8.962;2024-01-15T13:07:37;3.47;;;2.83;;
10471;SDS011;5283;48.876;8.962;2024-01-15T13:10:05;3.77;;;3.07;;
10471;SDS011;5283;48.876;8.962;2024-01-15T13:12:33;3.43;;;2.93;;
10471;SDS011;5283;48.876;8.962;2024-01-15T13:15:00;4.40;;;2.93;;
10471;SDS011;5283;48.876;8.962;2024-01-15T13:17:29;3.70;;;3.00;;
10471;SDS011;5283;48.876;8.962;2024-01-15T13:19:57;3.83;;;3.37;;
10471;SDS011;5283;48.876;8.962;2024-01-15T13:22:24;4.93;;;3.17;;
10471;SDS011;5283;48.876;8.962;2024-01-15T13:24:56;4.13;;;3.33;;
10471;SDS011;5283;48.876;8.962;2024-01-15T13:27:23;5.53;;;4.03;;
10471;SDS011;5283;48.876;8.962;2024-01-15T13:29:49;5.60;;;3.90;;
10471;SDS011;5283;48.876;8.962;2024-01-15T13:32:27;4.30;;;3.50;;
10471;SDS011;5283;48.876;8.962;2024-01-15T13:34:55;5.27;;;3.73;;
10471;SDS011;5283;48.876;8.962;2024-01-15T13:37:23;6.63;;;4.50;;
10471;SDS011;5283;48.876;8.962;2024-01-15T13:39:54;5.93;;;3.90;;
10471;SDS011;5283;48.876;8.962;2024-01-15T13:42:21;6.00;;;4.10;;
10471;SDS011;5283;48.876;8.962;2024-01-15T13:44:53;5.20;;;4.40;;
10471;SDS011;5283;48.876;8.962;2024-01-15T13:47:20;4.73;;;3.70;;
10471;SDS011;5283;48.876;8.962;2024-01-15T13:49:47;6.37;;;4.47;;
10471;SDS011;5283;48.876;8.962;2024-01-15T13:52:13;4.73;;;3.93;;
10471;SDS011;5283;48.876;8.962;2024-01-15T13:54:40;5.30;;;3.80;;
10471;SDS011;5283;48.876;8.962;2024-01-15T13:57:10;5.57;;;4.60;;
10471;SDS011;5283;48.876;8.962;2024-01-15T13:59:36;5.07;;;3.90;;
10471;SDS011;5283;48.876;8.962;2024-01-15T14:02:03;7.10;;;5.20;;
10471;SDS011;5283;48.876;8.962;2024-01-15T14:04:31;6.47;;;4.53;;
10471;SDS011;5283;48.876;8.962;2024-01-15T14:06:57;6.57;;;4.90;;
10471;SDS011;5283;48.876;8.962;2024-01-15T14:09:24;7.07;;;4.77;;
10471;SDS011;5283;48.876;8.962;2024-01-15T14:11:51;6.97;;;5.17;;
10471;SDS011;5283;48.876;8.962;2024-01-15T14:14:19;6.53;;;5.43;;
10471;SDS011;5283;48.876;8.962;2024-01-15T14:16:45;7.57;;;4.73;;
10471;SDS011;5283;48.876;8.962;2024-01-15T14:19:12;7.03;;;5.20;;
10471;SDS011;5283;48.876;8.962;2024-01-15T14:21:40;7.53;;;5.10;;
10471;SDS011;5283;48.876;8.962;2024-01-15T14:24:06;7.17;;;5.30;;
10471;SDS011;5283;48.876;8.962;2024-01-15T14:26:33;7.80;;;5.77;;
10471;SDS011;5283;48.876;8.962;2024-01-15T14:29:00;7.27;;;5.53;;
10471;SDS011;5283;48.876;8.962;2024-01-15T14:31:27;7.20;;;5.80;;
10471;SDS011;5283;48.876;8.962;2024-01-15T14:33:54;7.80;;;5.80;;
10471;SDS011;5283;48.876;8.962;2024-01-15T14:36:24;7.83;;;5.83;;
10471;SDS011;5283;48.876;8.962;2024-01-15T14:38:51;7.47;;;5.80;;
10471;SDS011;5283;48.876;8.962;2024-01-15T14:41:18;9.07;;;6.20;;
10471;SDS011;5283;48.876;8.962;2024-01-15T14:43:44;8.47;;;5.93;;
10471;SDS011;5283;48.876;8.962;2024-01-15T14:46:11;8.73;;;6.03;;
10471;SDS011;5283;48.876;8.962;2024-01-15T14:48:38;8.57;;;6.00;;
10471;SDS011;5283;48.876;8.962;2024-01-15T14:51:04;9.07;;;6.00;;
10471;SDS011;5283;48.876;8.962;2024-01-15T14:53:32;9.00;;;6.23;;
10471;SDS011;5283;48.876;8.962;2024-01-15T14:55:58;8.40;;;5.40;;
10471;SDS011;5283;48.876;8.962;2024-01-15T14:58:25;8.37;;;5.40;;
10471;SDS011;5283;48.876;8.962;2024-01-15T15:00:52;6.77;;;4.87;;
10471;SDS011;5283;48.876;8.962;2024-01-15T15:03:19;7.53;;;5.90;;
10471;SDS011;5283;48.876;8.962;2024-01-15T15:05:47;6.13;;;4.87;;
10471;SDS011;5283;48.876;8.962;2024-01-15T15:08:14;6.83;;;5.33;;
10471;SDS011;5283;48.876;8.962;2024-01-15T15:10:41;7.23;;;5.30;;
10471;SDS011;5283;48.876;8.962;2024-01-15T15:13:08;7.30;;;5.57;;